sensor_id;sensor_type;location;lat;lon;timestamp;P1;durP1;ratioP1;P2;durP2;ratioP2
12585;SDS011;6358;50.760;0.282;2022-07-06T00:01:31;4.68;;;4.10;;
12585;SDS011;6358;50.760;0.282;2022-07-06T00:03:58;6.00;;;4.28;;
12585;SDS011;6358;50.760;0.282;2022-07-06T00:06:24;4.25;;;3.85;;
12585;SDS011;6358;50.760;0.282;2022-07-06T00:08:50;5.43;;;4.28;;
12585;SDS011;6358;50.760;0.282;2022-07-06T00:11:16;4.43;;;4.03;;
12585;SDS011;6358;50.760;0.282;2022-07-06T00:13:42;5.03;;;4.13;;
12585;SDS011;6358;50.760;0.282;2022-07-06T00:16:08;4.70;;;4.20;;
12585;SDS011;6358;50.760;0.282;2022-07-06T00:18:34;4.85;;;4.22;;
12585;SDS011;6358;50.760;0.282;2022-07-06T00:21:01;5.20;;;4.40;;
12585;SDS011;6358;50.760;0.282;2022-07-06T00:23:27;4.70;;;3.75;;
12585;SDS011;6358;50.760;0.282;2022-07-06T00:25:53;4.57;;;3.80;;
12585;SDS011;6358;50.760;0.282;2022-07-06T00:28:19;4.18;;;3.78;;
12585;SDS011;6358;50.760;0.282;2022-07-06T00:30:45;3.95;;;3.55;;
12585;SDS011;6358;50.760;0.282;2022-07-06T00:33:11;4.82;;;3.80;;
12585;SDS011;6358;50.760;0.282;2022-07-06T00:35:37;4.32;;;3.92;;
12585;SDS011;6358;50.760;0.282;2022-07-06T00:38:03;3.92;;;3.50;;
12585;SDS011;6358;50.760;0.282;2022-07-06T00:40:29;4.03;;;3.60;;
12585;SDS011;6358;50.760;0.282;2022-07-06T00:42:55;3.92;;;3.58;;
12585;SDS011;6358;50.760;0.282;2022-07-06T00:45:22;4.07;;;3.65;;
12585;SDS011;6358;50.760;0.282;2022-07-06T00:47:48;3.80;;;3.40;;
12585;SDS011;6358;50.760;0.282;2022-07-06T00:50:15;4.30;;;3.90;;
12585;SDS011;6358;50.760;0.282;2022-07-06T00:52:49;3.70;;;3.40;;
12585;SDS011;6358;50.760;0.282;2022-07-06T00:55:17;3.97;;;3.60;;
12585;SDS011;6358;50.760;0.282;2022-07-06T00:57:43;4.35;;;3.47;;
12585;SDS011;6358;50.760;0.282;2022-07-06T01:00:10;4.70;;;3.53;;
12585;SDS011;6358;50.760;0.282;2022-07-06T01:02:37;3.47;;;3.17;;
12585;SDS011;6358;50.760;0.282;2022-07-06T01:05:03;3.17;;;2.97;;
12585;SDS011;6358;50.760;0.282;2022-07-06T01:07:30;3.90;;;3.22;;
12585;SDS011;6358;50.760;0.282;2022-07-06T01:09:56;3.90;;;3.33;;
12585;SDS011;6358;50.760;0.282;2022-07-06T01:12:23;3.25;;;2.97;;
12585;SDS011;6358;50.760;0.282;2022-07-06T01:14:49;4.82;;;3.60;;
12585;SDS011;6358;50.760;0.282;2022-07-06T01:17:16;3.78;;;3.47;;
12585;SDS011;6358;50.760;0.282;2022-07-06T01:19:42;4.57;;;3.13;;
12585;SDS011;6358;50.760;0.282;2022-07-06T01:22:09;3.97;;;3.30;;
12585;SDS011;6358;50.760;0.282;2022-07-06T01:24:36;4.68;;;3.13;;
12585;SDS011;6358;50.760;0.282;2022-07-06T01:27:03;3.40;;;3.10;;
12585;SDS011;6358;50.760;0.282;2022-07-06T01:29:30;3.30;;;3.00;;
12585;SDS011;6358;50.760;0.282;2022-07-06T01:31:56;3.20;;;2.90;;
12585;SDS011;6358;50.760;0.282;2022-07-06T01:34:22;3.17;;;2.88;;
12585;SDS011;6358;50.760;0.282;2022-07-06T01:36:48;3.30;;;3.00;;
12585;SDS011;6358;50.760;0.282;2022-07-06T01:39:14;2.83;;;2.58;;
12585;SDS011;6358;50.760;0.282;2022-07-06T01:41:40;2.70;;;2.50;;
12585;SDS011;6358;50.760;0.282;2022-07-06T01:44:07;3.45;;;2.80;;
12585;SDS011;6358;50.760;0.282;2022-07-06T01:46:33;2.95;;;2.50;;
12585;SDS011;6358;50.760;0.282;2022-07-06T01:48:59;3.25;;;2.70;;
12585;SDS011;6358;50.760;0.282;2022-07-06T01:51:25;2.83;;;2.63;;
12585;SDS011;6358;50.760;0.282;2022-07-06T01:53:52;2.70;;;2.50;;
12585;SDS011;6358;50.760;0.282;2022-07-06T01:56:18;2.50;;;2.30;;
12585;SDS011;6358;50.760;0.282;2022-07-06T01:58:47;2.92;;;2.70;;
12585;SDS011;6358;50.760;0.282;2022-07-06T02:01:18;3.10;;;2.80;;
12585;SDS011;6358;50.760;0.282;2022-07-06T02:03:45;2.40;;;2.20;;
12585;SDS011;6358;50.760;0.282;2022-07-06T02:06:11;2.50;;;2.30;;
12585;SDS011;6358;50.760;0.282;2022-07-06T02:08:38;3.35;;;2.40;;
12585;SDS011;6358;50.760;0.282;2022-07-06T02:11:05;2.65;;;2.33;;
12585;SDS011;6358;50.760;0.282;2022-07-06T02:13:31;2.47;;;2.28;;
12585;SDS011;6358;50.760;0.282;2022-07-06T02:15:57;2.40;;;2.20;;
12585;SDS011;6358;50.760;0.282;2022-07-06T02:18:23;2.38;;;2.17;;
12585;SDS011;6358;50.760;0.282;2022-07-06T02:20:49;2.40;;;2.20;;
12585;SDS011;6358;50.760;0.282;2022-07-06T02:23:15;2.67;;;2.20;;
12585;SDS011;6358;50.760;0.282;2022-07-06T02:25:42;1.88;;;1.77;;
12585;SDS011;6358;50.760;0.282;2022-07-06T02:28:08;3.67;;;2.30;;
12585;SDS011;6358;50.760;0.282;2022-07-06T02:30:34;2.38;;;2.17;;
12585;SDS011;6358;50.760;0.282;2022-07-06T02:33:00;2.72;;;2.53;;
12585;SDS011;6358;50.760;0.282;2022-07-06T02:35:26;2.28;;;2.08;;
12585;SDS011;6358;50.760;0.282;2022-07-06T02:37:52;2.40;;;2.00;;
12585;SDS011;6358;50.760;0.282;2022-07-06T02:40:18;2.30;;;2.10;;
12585;SDS011;6358;50.760;0.282;2022-07-06T02:42:45;2.92;;;2.38;;
12585;SDS011;6358;50.760;0.282;2022-07-06T02:45:11;2.20;;;2.00;;
12585;SDS011;6358;50.760;0.282;2022-07-06T02:47:37;2.03;;;1.90;;
12585;SDS011;6358;50.760;0.282;2022-07-06T02:50:03;2.20;;;2.00;;
12585;SDS011;6358;50.760;0.282;2022-07-06T02:52:30;2.20;;;2.00;;
12585;SDS011;6358;50.760;0.282;2022-07-06T02:54:56;1.95;;;1.85;;
12585;SDS011;6358;50.760;0.282;2022-07-06T02:57:22;2.20;;;2.00;;
12585;SDS011;6358;50.760;0.282;2022-07-06T02:59:48;1.92;;;1.67;;
12585;SDS011;6358;50.760;0.282;2022-07-06T03:02:17;2.00;;;1.80;;
12585;SDS011;6358;50.760;0.282;2022-07-06T03:04:43;2.63;;;1.80;;
12585;SDS011;6358;50.760;0.282;2022-07-06T03:07:09;2.28;;;2.05;;
12585;SDS011;6358;50.760;0.282;2022-07-06T03:09:35;1.70;;;1.60;;
12585;SDS011;6358;50.760;0.282;2022-07-06T03:12:02;2.88;;;1.90;;
12585;SDS011;6358;50.760;0.282;2022-07-06T03:14:28;2.20;;;2.00;;
12585;SDS011;6358;50.760;0.282;2022-07-06T03:16:54;1.70;;;1.60;;
12585;SDS011;6358;50.760;0.282;2022-07-06T03:19:20;2.60;;;1.80;;
12585;SDS011;6358;50.760;0.282;2022-07-06T03:21:46;1.70;;;1.60;;
12585;SDS011;6358;50.760;0.282;2022-07-06T03:24:12;3.03;;;1.80;;
12585;SDS011;6358;50.760;0.282;2022-07-06T03:26:39;1.60;;;1.50;;
12585;SDS011;6358;50.760;0.282;2022-07-06T03:29:05;2.00;;;1.80;;
12585;SDS011;6358;50.760;0.282;2022-07-06T03:31:31;1.58;;;1.45;;
12585;SDS011;6358;50.760;0.282;2022-07-06T03:33:57;1.75;;;1.60;;
12585;SDS011;6358;50.760;0.282;2022-07-06T03:36:23;1.55;;;1.45;;
12585;SDS011;6358;50.760;0.282;2022-07-06T03:38:49;1.67;;;1.58;;
12585;SDS011;6358;50.760;0.282;2022-07-06T03:41:15;1.60;;;1.50;;
12585;SDS011;6358;50.760;0.282;2022-07-06T03:43:41;1.70;;;1.52;;
12585;SDS011;6358;50.760;0.282;2022-07-06T03:46:07;1.67;;;1.58;;
12585;SDS011;6358;50.760;0.282;2022-07-06T03:48:33;3.03;;;1.60;;
12585;SDS011;6358;50.760;0.282;2022-07-06T03:51:00;1.48;;;1.38;;
12585;SDS011;6358;50.760;0.282;2022-07-06T03:53:26;2.13;;;1.92;;
12585;SDS011;6358;50.760;0.282;2022-07-06T03:55:52;1.60;;;1.50;;
12585;SDS011;6358;50.760;0.282;2022-07-06T03:58:36;2.30;;;1.55;;
12585;SDS011;6358;50.760;0.282;2022-07-06T04:01:03;1.60;;;1.50;;
12585;SDS011;6358;50.760;0.282;2022-07-06T04:03:29;1.58;;;1.40;;
12585;SDS011;6358;50.760;0.282;2022-07-06T04:05:55;1.60;;;1.50;;
12585;SDS011;6358;50.760;0.282;2022-07-06T04:08:21;1.40;;;1.30;;
12585;SDS011;6358;50.760;0.282;2022-07-06T04:10:48;1.98;;;1.58;;
12585;SDS011;6358;50.760;0.282;2022-07-06T04:13:14;1.85;;;1.60;;
12585;SDS011;6358;50.760;0.282;2022-07-06T04:15:40;1.70;;;1.42;;
12585;SDS011;6358;50.760;0.282;2022-07-06T04:18:06;1.50;;;1.40;;
12585;SDS011;6358;50.760;0.282;2022-07-06T04:20:32;1.50;;;1.40;;
12585;SDS011;6358;50.760;0.282;2022-07-06T04:22:58;1.55;;;1.45;;
12585;SDS011;6358;50.760;0.282;2022-07-06T04:25:24;1.73;;;1.30;;
12585;SDS011;6358;50.760;0.282;2022-07-06T04:27:51;2.17;;;1.52;;
12585;SDS011;6358;50.760;0.282;2022-07-06T04:30:17;1.48;;;1.38;;
12585;SDS011;6358;50.760;0.282;2022-07-06T04:32:43;1.63;;;1.45;;
12585;SDS011;6358;50.760;0.282;2022-07-06T04:35:09;1.40;;;1.30;;
12585;SDS011;6358;50.760;0.282;2022-07-06T04:37:35;1.55;;;1.35;;
12585;SDS011;6358;50.760;0.282;2022-07-06T04:40:02;1.40;;;1.30;;
12585;SDS011;6358;50.760;0.282;2022-07-06T04:42:28;2.80;;;1.40;;
12585;SDS011;6358;50.760;0.282;2022-07-06T04:44:54;1.85;;;1.40;;
12585;SDS011;6358;50.760;0.282;2022-07-06T04:47:20;1.45;;;1.35;;
12585;SDS011;6358;50.760;0.282;2022-07-06T04:49:47;1.60;;;1.50;;
12585;SDS011;6358;50.760;0.282;2022-07-06T04:52:13;1.30;;;1.20;;
12585;SDS011;6358;50.760;0.282;2022-07-06T04:54:39;1.50;;;1.40;;
12585;SDS011;6358;50.760;0.282;2022-07-06T04:57:05;1.92;;;1.50;;
12585;SDS011;6358;50.760;0.282;2022-07-06T04:59:31;1.40;;;1.30;;
12585;SDS011;6358;50.760;0.282;2022-07-06T05:01:57;1.40;;;1.20;;
12585;SDS011;6358;50.760;0.282;2022-07-06T05:04:23;1.17;;;1.08;;
12585;SDS011;6358;50.760;0.282;2022-07-06T05:06:50;1.50;;;1.40;;
12585;SDS011;6358;50.760;0.282;2022-07-06T05:09:16;1.30;;;1.20;;
12585;SDS011;6358;50.760;0.282;2022-07-06T05:11:42;1.55;;;1.20;;
12585;SDS011;6358;50.760;0.282;2022-07-06T05:14:09;1.45;;;1.25;;
12585;SDS011;6358;50.760;0.282;2022-07-06T05:16:35;1.58;;;1.48;;
12585;SDS011;6358;50.760;0.282;2022-07-06T05:19:02;1.23;;;1.13;;
12585;SDS011;6358;50.760;0.282;2022-07-06T05:21:28;1.55;;;1.20;;
12585;SDS011;6358;50.760;0.282;2022-07-06T05:23:54;1.30;;;1.20;;
12585;SDS011;6358;50.760;0.282;2022-07-06T05:26:20;2.58;;;1.20;;
12585;SDS011;6358;50.760;0.282;2022-07-06T05:28:46;1.20;;;1.10;;
12585;SDS011;6358;50.760;0.282;2022-07-06T05:31:12;1.60;;;1.20;;
12585;SDS011;6358;50.760;0.282;2022-07-06T05:33:38;1.40;;;1.30;;
12585;SDS011;6358;50.760;0.282;2022-07-06T05:36:05;1.27;;;1.13;;
12585;SDS011;6358;50.760;0.282;2022-07-06T05:38:31;1.95;;;1.45;;
12585;SDS011;6358;50.760;0.282;2022-07-06T05:40:57;2.47;;;1.30;;
12585;SDS011;6358;50.760;0.282;2022-07-06T05:43:23;2.40;;;1.15;;
12585;SDS011;6358;50.760;0.282;2022-07-06T05:45:49;1.35;;;1.17;;
12585;SDS011;6358;50.760;0.282;2022-07-06T05:48:15;1.30;;;1.20;;
12585;SDS011;6358;50.760;0.282;2022-07-06T05:51:00;1.30;;;1.20;;
12585;SDS011;6358;50.760;0.282;2022-07-06T05:53:26;1.20;;;1.10;;
12585;SDS011;6358;50.760;0.282;2022-07-06T05:55:52;2.20;;;1.10;;
12585;SDS011;6358;50.760;0.282;2022-07-06T05:58:18;1.30;;;1.10;;
12585;SDS011;6358;50.760;0.282;2022-07-06T06:00:45;1.73;;;1.17;;
12585;SDS011;6358;50.760;0.282;2022-07-06T06:03:12;1.88;;;1.40;;
12585;SDS011;6358;50.760;0.282;2022-07-06T06:05:38;1.90;;;1.40;;
12585;SDS011;6358;50.760;0.282;2022-07-06T06:08:04;2.17;;;1.35;;
12585;SDS011;6358;50.760;0.282;2022-07-06T06:10:30;1.52;;;1.23;;
12585;SDS011;6358;50.760;0.282;2022-07-06T06:12:56;1.13;;;1.02;;
12585;SDS011;6358;50.760;0.282;2022-07-06T06:15:22;1.23;;;1.02;;
12585;SDS011;6358;50.760;0.282;2022-07-06T06:17:49;1.42;;;1.30;;
12585;SDS011;6358;50.760;0.282;2022-07-06T06:20:15;1.92;;;1.20;;
12585;SDS011;6358;50.760;0.282;2022-07-06T06:22:45;1.58;;;1.00;;
12585;SDS011;6358;50.760;0.282;2022-07-06T06:25:12;1.20;;;1.10;;
12585;SDS011;6358;50.760;0.282;2022-07-06T06:27:38;2.17;;;1.20;;
12585;SDS011;6358;50.760;0.282;2022-07-06T06:30:05;1.77;;;1.00;;
12585;SDS011;6358;50.760;0.282;2022-07-06T06:32:31;1.55;;;1.40;;
12585;SDS011;6358;50.760;0.282;2022-07-06T06:34:57;1.58;;;1.02;;
12585;SDS011;6358;50.760;0.282;2022-07-06T06:37:23;1.30;;;1.20;;
12585;SDS011;6358;50.760;0.282;2022-07-06T06:39:49;2.78;;;1.23;;
12585;SDS011;6358;50.760;0.282;2022-07-06T06:42:15;2.72;;;1.30;;
12585;SDS011;6358;50.760;0.282;2022-07-06T06:44:41;2.53;;;1.40;;
12585;SDS011;6358;50.760;0.282;2022-07-06T06:47:07;1.63;;;1.20;;
12585;SDS011;6358;50.760;0.282;2022-07-06T06:49:34;2.47;;;1.25;;
12585;SDS011;6358;50.760;0.282;2022-07-06T06:52:00;3.35;;;1.20;;
12585;SDS011;6358;50.760;0.282;2022-07-06T06:54:26;2.13;;;1.30;;
12585;SDS011;6358;50.760;0.282;2022-07-06T06:56:52;1.67;;;1.20;;
12585;SDS011;6358;50.760;0.282;2022-07-06T06:59:18;2.85;;;1.30;;
12585;SDS011;6358;50.760;0.282;2022-07-06T07:01:44;1.58;;;1.17;;
12585;SDS011;6358;50.760;0.282;2022-07-06T07:04:10;4.78;;;1.17;;
12585;SDS011;6358;50.760;0.282;2022-07-06T07:06:36;1.20;;;1.10;;
12585;SDS011;6358;50.760;0.282;2022-07-06T07:09:03;1.60;;;1.10;;
12585;SDS011;6358;50.760;0.282;2022-07-06T07:11:30;3.13;;;1.23;;
12585;SDS011;6358;50.760;0.282;2022-07-06T07:13:56;1.73;;;1.13;;
12585;SDS011;6358;50.760;0.282;2022-07-06T07:16:22;2.78;;;1.40;;
12585;SDS011;6358;50.760;0.282;2022-07-06T07:18:49;3.47;;;1.58;;
12585;SDS011;6358;50.760;0.282;2022-07-06T07:21:16;2.13;;;1.73;;
12585;SDS011;6358;50.760;0.282;2022-07-06T07:23:42;7.30;;;4.25;;
12585;SDS011;6358;50.760;0.282;2022-07-06T07:26:08;6.45;;;5.28;;
12585;SDS011;6358;50.760;0.282;2022-07-06T07:28:34;7.22;;;4.53;;
12585;SDS011;6358;50.760;0.282;2022-07-06T07:31:00;7.30;;;3.28;;
12585;SDS011;6358;50.760;0.282;2022-07-06T07:33:26;4.15;;;2.60;;
12585;SDS011;6358;50.760;0.282;2022-07-06T07:35:53;3.83;;;2.50;;
12585;SDS011;6358;50.760;0.282;2022-07-06T07:38:19;4.47;;;2.47;;
12585;SDS011;6358;50.760;0.282;2022-07-06T07:40:45;3.40;;;2.30;;
12585;SDS011;6358;50.760;0.282;2022-07-06T07:43:11;3.53;;;2.22;;
12585;SDS011;6358;50.760;0.282;2022-07-06T07:45:37;3.33;;;2.10;;
12585;SDS011;6358;50.760;0.282;2022-07-06T07:48:04;2.75;;;1.98;;
12585;SDS011;6358;50.760;0.282;2022-07-06T07:50:30;2.70;;;1.95;;
12585;SDS011;6358;50.760;0.282;2022-07-06T07:52:56;3.15;;;1.92;;
12585;SDS011;6358;50.760;0.282;2022-07-06T07:55:22;2.95;;;1.75;;
12585;SDS011;6358;50.760;0.282;2022-07-06T07:57:48;3.03;;;2.00;;
12585;SDS011;6358;50.760;0.282;2022-07-06T08:00:14;2.90;;;1.90;;
12585;SDS011;6358;50.760;0.282;2022-07-06T08:02:40;2.70;;;1.88;;
12585;SDS011;6358;50.760;0.282;2022-07-06T08:05:07;3.20;;;2.10;;
12585;SDS011;6358;50.760;0.282;2022-07-06T08:07:33;2.30;;;1.80;;
12585;SDS011;6358;50.760;0.282;2022-07-06T08:09:59;2.08;;;1.70;;
12585;SDS011;6358;50.760;0.282;2022-07-06T08:12:25;2.85;;;1.80;;
12585;SDS011;6358;50.760;0.282;2022-07-06T08:14:51;1.80;;;1.67;;
12585;SDS011;6358;50.760;0.282;2022-07-06T08:17:18;2.28;;;1.80;;
12585;SDS011;6358;50.760;0.282;2022-07-06T08:19:44;2.47;;;1.60;;
12585;SDS011;6358;50.760;0.282;2022-07-06T08:22:10;1.80;;;1.50;;
12585;SDS011;6358;50.760;0.282;2022-07-06T08:24:36;2.17;;;1.35;;
12585;SDS011;6358;50.760;0.282;2022-07-06T08:27:02;3.45;;;1.50;;
12585;SDS011;6358;50.760;0.282;2022-07-06T08:29:29;1.92;;;1.60;;
12585;SDS011;6358;50.760;0.282;2022-07-06T08:31:55;2.30;;;1.77;;
12585;SDS011;6358;50.760;0.282;2022-07-06T08:34:21;2.17;;;1.50;;
12585;SDS011;6358;50.760;0.282;2022-07-06T08:36:48;3.22;;;1.65;;
12585;SDS011;6358;50.760;0.282;2022-07-06T08:39:14;2.08;;;1.70;;
12585;SDS011;6358;50.760;0.282;2022-07-06T08:41:43;2.00;;;1.50;;
12585;SDS011;6358;50.760;0.282;2022-07-06T08:44:13;2.25;;;1.40;;
12585;SDS011;6358;50.760;0.282;2022-07-06T08:46:39;1.98;;;1.30;;
12585;SDS011;6358;50.760;0.282;2022-07-06T08:49:06;2.70;;;1.55;;
12585;SDS011;6358;50.760;0.282;2022-07-06T08:51:32;1.92;;;1.38;;
12585;SDS011;6358;50.760;0.282;2022-07-06T08:54:00;2.83;;;1.40;;
12585;SDS011;6358;50.760;0.282;2022-07-06T08:56:27;1.75;;;1.30;;
12585;SDS011;6358;50.760;0.282;2022-07-06T08:58:53;2.08;;;1.38;;
12585;SDS011;6358;50.760;0.282;2022-07-06T09:01:20;1.35;;;1.23;;
12585;SDS011;6358;50.760;0.282;2022-07-06T09:03:48;1.50;;;1.40;;
12585;SDS011;6358;50.760;0.282;2022-07-06T09:06:16;2.30;;;1.38;;
12585;SDS011;6358;50.760;0.282;2022-07-06T09:08:42;2.83;;;1.30;;
12585;SDS011;6358;50.760;0.282;2022-07-06T09:11:09;1.40;;;1.30;;
12585;SDS011;6358;50.760;0.282;2022-07-06T09:13:35;2.05;;;1.50;;
12585;SDS011;6358;50.760;0.282;2022-07-06T09:16:11;1.88;;;1.20;;
12585;SDS011;6358;50.760;0.282;2022-07-06T09:18:38;1.63;;;1.35;;
12585;SDS011;6358;50.760;0.282;2022-07-06T09:21:07;2.35;;;1.42;;
12585;SDS011;6358;50.760;0.282;2022-07-06T09:23:33;1.48;;;1.30;;
12585;SDS011;6358;50.760;0.282;2022-07-06T09:26:03;1.48;;;1.23;;
12585;SDS011;6358;50.760;0.282;2022-07-06T09:28:42;1.27;;;1.17;;
12585;SDS011;6358;50.760;0.282;2022-07-06T09:31:09;1.50;;;1.40;;
12585;SDS011;6358;50.760;0.282;2022-07-06T09:33:35;1.77;;;1.40;;
12585;SDS011;6358;50.760;0.282;2022-07-06T09:36:01;1.50;;;0.98;;
12585;SDS011;6358;50.760;0.282;2022-07-06T09:38:28;1.35;;;1.25;;
12585;SDS011;6358;50.760;0.282;2022-07-06T09:40:54;1.55;;;1.30;;
12585;SDS011;6358;50.760;0.282;2022-07-06T09:43:21;1.40;;;1.25;;
12585;SDS011;6358;50.760;0.282;2022-07-06T09:45:51;1.55;;;1.30;;
12585;SDS011;6358;50.760;0.282;2022-07-06T09:48:18;1.48;;;1.20;;
12585;SDS011;6358;50.760;0.282;2022-07-06T09:50:54;1.42;;;1.33;;
12585;SDS011;6358;50.760;0.282;2022-07-06T09:53:22;1.45;;;1.35;;
12585;SDS011;6358;50.760;0.282;2022-07-06T09:55:54;1.60;;;1.40;;
12585;SDS011;6358;50.760;0.282;2022-07-06T09:58:20;1.70;;;1.60;;
12585;SDS011;6358;50.760;0.282;2022-07-06T10:00:47;1.45;;;1.35;;
12585;SDS011;6358;50.760;0.282;2022-07-06T10:03:14;2.72;;;1.65;;
12585;SDS011;6358;50.760;0.282;2022-07-06T10:05:41;2.22;;;1.50;;
12585;SDS011;6358;50.760;0.282;2022-07-06T10:08:08;2.42;;;2.05;;
12585;SDS011;6358;50.760;0.282;2022-07-06T10:10:35;2.28;;;1.83;;
12585;SDS011;6358;50.760;0.282;2022-07-06T10:13:01;2.33;;;1.83;;
12585;SDS011;6358;50.760;0.282;2022-07-06T10:15:29;2.58;;;2.33;;
12585;SDS011;6358;50.760;0.282;2022-07-06T10:18:03;2.65;;;2.35;;
12585;SDS011;6358;50.760;0.282;2022-07-06T10:20:30;2.17;;;1.98;;
12585;SDS011;6358;50.760;0.282;2022-07-06T10:22:58;2.25;;;2.05;;
12585;SDS011;6358;50.760;0.282;2022-07-06T10:25:24;2.20;;;2.00;;
12585;SDS011;6358;50.760;0.282;2022-07-06T10:27:51;3.10;;;2.80;;
12585;SDS011;6358;50.760;0.282;2022-07-06T10:30:17;2.90;;;2.67;;
12585;SDS011;6358;50.760;0.282;2022-07-06T10:32:44;3.08;;;2.78;;
12585;SDS011;6358;50.760;0.282;2022-07-06T10:35:12;3.58;;;2.90;;
12585;SDS011;6358;50.760;0.282;2022-07-06T10:37:38;2.72;;;2.50;;
12585;SDS011;6358;50.760;0.282;2022-07-06T10:40:05;2.92;;;2.72;;
12585;SDS011;6358;50.760;0.282;2022-07-06T10:42:56;2.65;;;2.40;;
12585;SDS011;6358;50.760;0.282;2022-07-06T10:50:49;2.97;;;2.47;;
12585;SDS011;6358;50.760;0.282;2022-07-06T10:55:43;3.45;;;3.15;;
12585;SDS011;6358;50.760;0.282;2022-07-06T10:58:11;3.10;;;2.50;;
12585;SDS011;6358;50.760;0.282;2022-07-06T11:00:53;2.60;;;2.30;;
12585;SDS011;6358;50.760;0.282;2022-07-06T11:05:58;2.97;;;2.70;;
12585;SDS011;6358;50.760;0.282;2022-07-06T11:13:59;2.30;;;2.10;;
12585;SDS011;6358;50.760;0.282;2022-07-06T11:16:29;2.35;;;2.13;;
12585;SDS011;6358;50.760;0.282;2022-07-06T11:21:35;2.20;;;2.00;;
12585;SDS011;6358;50.760;0.282;2022-07-06T11:24:02;2.08;;;1.98;;
12585;SDS011;6358;50.760;0.282;2022-07-06T11:26:29;2.35;;;2.00;;
12585;SDS011;6358;50.760;0.282;2022-07-06T11:28:55;1.90;;;1.80;;
12585;SDS011;6358;50.760;0.282;2022-07-06T11:31:24;2.95;;;1.98;;
12585;SDS011;6358;50.760;0.282;2022-07-06T11:33:50;1.90;;;1.80;;
12585;SDS011;6358;50.760;0.282;2022-07-06T11:36:18;1.75;;;1.63;;
12585;SDS011;6358;50.760;0.282;2022-07-06T11:38:45;2.28;;;1.90;;
12585;SDS011;6358;50.760;0.282;2022-07-06T11:41:12;2.53;;;1.70;;
12585;SDS011;6358;50.760;0.282;2022-07-06T11:43:45;1.75;;;1.63;;
12585;SDS011;6358;50.760;0.282;2022-07-06T11:46:22;2.78;;;1.90;;
12585;SDS011;6358;50.760;0.282;2022-07-06T11:48:48;1.90;;;1.70;;
12585;SDS011;6358;50.760;0.282;2022-07-06T11:51:15;1.75;;;1.63;;
12585;SDS011;6358;50.760;0.282;2022-07-06T11:53:48;1.67;;;1.58;;
12585;SDS011;6358;50.760;0.282;2022-07-06T11:56:14;2.00;;;1.90;;
12585;SDS011;6358;50.760;0.282;2022-07-06T11:58:46;2.63;;;1.85;;
12585;SDS011;6358;50.760;0.282;2022-07-06T12:01:13;2.05;;;1.60;;
12585;SDS011;6358;50.760;0.282;2022-07-06T12:03:40;1.90;;;1.80;;
12585;SDS011;6358;50.760;0.282;2022-07-06T12:06:09;1.60;;;1.48;;
12585;SDS011;6358;50.760;0.282;2022-07-06T12:08:57;2.03;;;1.83;;
12585;SDS011;6358;50.760;0.282;2022-07-06T12:11:24;1.52;;;1.42;;
12585;SDS011;6358;50.760;0.282;2022-07-06T12:13:52;1.60;;;1.50;;
12585;SDS011;6358;50.760;0.282;2022-07-06T12:16:18;1.67;;;1.50;;
12585;SDS011;6358;50.760;0.282;2022-07-06T12:18:46;1.50;;;1.40;;
12585;SDS011;6358;50.760;0.282;2022-07-06T12:21:13;1.60;;;1.50;;
12585;SDS011;6358;50.760;0.282;2022-07-06T12:23:42;1.50;;;1.40;;
12585;SDS011;6358;50.760;0.282;2022-07-06T12:26:09;1.58;;;1.48;;
12585;SDS011;6358;50.760;0.282;2022-07-06T12:28:35;1.58;;;1.40;;
12585;SDS011;6358;50.760;0.282;2022-07-06T12:31:01;1.50;;;1.40;;
12585;SDS011;6358;50.760;0.282;2022-07-06T12:33:27;1.23;;;1.13;;
12585;SDS011;6358;50.760;0.282;2022-07-06T12:35:54;2.00;;;1.52;;
12585;SDS011;6358;50.760;0.282;2022-07-06T12:40:50;1.58;;;1.48;;
12585;SDS011;6358;50.760;0.282;2022-07-06T12:46:27;1.90;;;1.52;;
12585;SDS011;6358;50.760;0.282;2022-07-06T12:48:55;2.63;;;1.50;;
12585;SDS011;6358;50.760;0.282;2022-07-06T12:51:21;1.70;;;1.60;;
12585;SDS011;6358;50.760;0.282;2022-07-06T12:53:47;1.40;;;1.30;;
12585;SDS011;6358;50.760;0.282;2022-07-06T12:56:13;1.35;;;1.25;;
12585;SDS011;6358;50.760;0.282;2022-07-06T12:58:40;2.08;;;1.40;;
12585;SDS011;6358;50.760;0.282;2022-07-06T13:01:19;2.22;;;1.33;;
12585;SDS011;6358;50.760;0.282;2022-07-06T13:03:45;1.40;;;1.30;;
12585;SDS011;6358;50.760;0.282;2022-07-06T13:06:11;1.45;;;1.35;;
12585;SDS011;6358;50.760;0.282;2022-07-06T13:08:37;1.40;;;1.30;;
12585;SDS011;6358;50.760;0.282;2022-07-06T13:11:03;1.67;;;1.40;;
12585;SDS011;6358;50.760;0.282;2022-07-06T13:13:30;1.30;;;1.30;;
12585;SDS011;6358;50.760;0.282;2022-07-06T13:15:56;1.20;;;1.20;;
12585;SDS011;6358;50.760;0.282;2022-07-06T13:18:22;1.63;;;1.50;;
12585;SDS011;6358;50.760;0.282;2022-07-06T13:20:48;1.58;;;1.42;;
12585;SDS011;6358;50.760;0.282;2022-07-06T13:23:14;1.52;;;1.42;;
12585;SDS011;6358;50.760;0.282;2022-07-06T13:25:40;1.95;;;1.40;;
12585;SDS011;6358;50.760;0.282;2022-07-06T13:28:07;1.63;;;1.20;;
12585;SDS011;6358;50.760;0.282;2022-07-06T13:30:33;1.50;;;1.40;;
12585;SDS011;6358;50.760;0.282;2022-07-06T13:32:59;3.22;;;1.50;;
12585;SDS011;6358;50.760;0.282;2022-07-06T13:35:25;1.30;;;1.20;;
12585;SDS011;6358;50.760;0.282;2022-07-06T13:37:51;1.77;;;1.55;;
12585;SDS011;6358;50.760;0.282;2022-07-06T13:40:17;1.50;;;1.40;;
12585;SDS011;6358;50.760;0.282;2022-07-06T13:42:43;1.63;;;1.40;;
12585;SDS011;6358;50.760;0.282;2022-07-06T13:45:10;1.30;;;1.20;;
12585;SDS011;6358;50.760;0.282;2022-07-06T13:47:36;1.52;;;1.17;;
12585;SDS011;6358;50.760;0.282;2022-07-06T13:50:03;1.38;;;1.23;;
12585;SDS011;6358;50.760;0.282;2022-07-06T13:52:29;2.00;;;1.42;;
12585;SDS011;6358;50.760;0.282;2022-07-06T13:54:55;1.83;;;1.10;;
12585;SDS011;6358;50.760;0.282;2022-07-06T13:57:21;1.40;;;1.30;;
12585;SDS011;6358;50.760;0.282;2022-07-06T13:59:47;1.58;;;1.40;;
12585;SDS011;6358;50.760;0.282;2022-07-06T14:02:13;1.85;;;1.35;;
12585;SDS011;6358;50.760;0.282;2022-07-06T14:04:39;2.15;;;1.42;;
12585;SDS011;6358;50.760;0.282;2022-07-06T14:07:05;1.65;;;1.33;;
12585;SDS011;6358;50.760;0.282;2022-07-06T14:09:31;1.70;;;1.40;;
12585;SDS011;6358;50.760;0.282;2022-07-06T14:11:57;3.60;;;1.30;;
12585;SDS011;6358;50.760;0.282;2022-07-06T14:14:25;1.63;;;1.30;;
12585;SDS011;6358;50.760;0.282;2022-07-06T14:16:51;1.15;;;1.15;;
12585;SDS011;6358;50.760;0.282;2022-07-06T14:19:17;1.52;;;1.20;;
12585;SDS011;6358;50.760;0.282;2022-07-06T14:21:47;1.20;;;1.10;;
12585;SDS011;6358;50.760;0.282;2022-07-06T14:24:13;1.98;;;1.20;;
12585;SDS011;6358;50.760;0.282;2022-07-06T14:26:39;1.25;;;1.10;;
12585;SDS011;6358;50.760;0.282;2022-07-06T14:29:05;3.10;;;1.35;;
12585;SDS011;6358;50.760;0.282;2022-07-06T14:31:31;2.33;;;1.20;;
12585;SDS011;6358;50.760;0.282;2022-07-06T14:33:57;1.30;;;1.20;;
12585;SDS011;6358;50.760;0.282;2022-07-06T14:36:23;1.25;;;0.90;;
12585;SDS011;6358;50.760;0.282;2022-07-06T14:38:50;1.23;;;1.13;;
12585;SDS011;6358;50.760;0.282;2022-07-06T14:41:16;1.20;;;1.10;;
12585;SDS011;6358;50.760;0.282;2022-07-06T14:43:42;1.20;;;1.10;;
12585;SDS011;6358;50.760;0.282;2022-07-06T14:46:08;1.30;;;1.17;;
12585;SDS011;6358;50.760;0.282;2022-07-06T14:48:34;1.17;;;1.10;;
12585;SDS011;6358;50.760;0.282;2022-07-06T14:51:00;1.63;;;1.20;;
12585;SDS011;6358;50.760;0.282;2022-07-06T14:53:26;0.98;;;0.98;;
12585;SDS011;6358;50.760;0.282;2022-07-06T14:55:53;1.30;;;1.20;;
12585;SDS011;6358;50.760;0.282;2022-07-06T14:58:19;2.80;;;1.25;;
12585;SDS011;6358;50.760;0.282;2022-07-06T15:00:47;1.98;;;1.30;;
12585;SDS011;6358;50.760;0.282;2022-07-06T15:03:13;1.30;;;1.20;;
12585;SDS011;6358;50.760;0.282;2022-07-06T15:05:39;1.92;;;1.20;;
12585;SDS011;6358;50.760;0.282;2022-07-06T15:08:08;1.20;;;1.10;;
12585;SDS011;6358;50.760;0.282;2022-07-06T15:10:34;1.08;;;1.08;;
12585;SDS011;6358;50.760;0.282;2022-07-06T15:13:00;1.40;;;1.20;;
12585;SDS011;6358;50.760;0.282;2022-07-06T15:15:26;1.17;;;1.13;;
12585;SDS011;6358;50.760;0.282;2022-07-06T15:17:52;1.38;;;1.25;;
12585;SDS011;6358;50.760;0.282;2022-07-06T15:20:19;1.70;;;1.20;;
12585;SDS011;6358;50.760;0.282;2022-07-06T15:22:47;2.55;;;1.17;;